Time;durP1;ratioP1;P1;durP2;ratioP2;P2;SDS_P1;SDS_P2;PMS_P1;PMS_P2;Temp;Humidity;BMP_temperature;BMP_pressure;BME280_temperature;BME280_humidity;BME280_pressure;Samples;Min_cycle;Max_cycle;Signal;HPM_P1;HPM_P2
2021/01/29 00:01:18;;;;;;;10.13;4.23;;;0.70;1.00;;;;;;5115664;28;20226;-64
2021/01/29 00:03:43;;;;;;;5.10;4.60;;;0.60;99.90;;;;;;5116666;28;20214;-64
2021/01/29 00:06:09;;;;;;;8.80;4.43;;;0.60;99.90;;;;;;5115939;28;20577;-67
2021/01/29 00:08:35;;;;;;;5.37;4.40;;;0.50;1.00;;;;;;5116704;28;20183;-64
2021/01/29 00:11:02;;;;;;;3.67;3.38;;;0.50;95.60;;;;;;5116639;28;20608;-64
2021/01/29 00:13:27;;;;;;;6.55;4.80;;;0.70;99.90;;;;;;5116210;28;20183;-65
2021/01/29 00:15:53;;;;;;;4.30;3.90;;;0.80;99.90;;;;;;5116490;28;20211;-64
2021/01/29 00:18:20;;;;;;;6.57;3.75;;;0.90;99.90;;;;;;5116431;28;20220;-65
2021/01/29 00:20:45;;;;;;;8.40;4.43;;;0.90;1.00;;;;;;5116445;28;20600;-65
2021/01/29 00:23:11;;;;;;;5.90;3.63;;;0.80;1.00;;;;;;5115144;28;20313;-61
2021/01/29 00:25:41;;;;;;;6.93;4.30;;;0.70;1.00;;;;;;5116182;28;20176;-61
2021/01/29 00:28:07;;;;;;;8.35;4.65;;;0.70;1.00;;;;;;5116227;28;20520;-64
2021/01/29 00:30:34;;;;;;;13.98;6.93;;;0.70;1.00;;;;;;5116242;28;20562;-62
2021/01/29 00:33:01;;;;;;;15.40;5.82;;;0.90;1.00;;;;;;5116171;28;20189;-63
2021/01/29 00:35:30;;;;;;;5.07;3.83;;;1.00;1.00;;;;;;5115958;28;20210;-62
2021/01/29 00:37:56;;;;;;;5.40;4.90;;;0.90;99.90;;;;;;5116299;28;20164;-62
2021/01/29 00:40:22;;;;;;;9.68;4.90;;;0.90;1.00;;;;;;5115018;28;20175;-62
2021/01/29 00:42:48;;;;;;;6.68;4.90;;;0.90;1.00;;;;;;5115974;28;20211;-62
2021/01/29 00:45:16;;;;;;;4.82;4.32;;;0.70;99.90;;;;;;5115718;28;20195;-62
2021/01/29 00:47:42;;;;;;;5.55;4.72;;;0.70;1.00;;;;;;5116374;28;20179;-60
2021/01/29 00:50:09;;;;;;;8.37;5.10;;;0.70;1.00;;;;;;5114896;28;20175;-61
2021/01/29 00:52:34;;;;;;;8.20;4.90;;;0.80;1.00;;;;;;5116031;28;20194;-61
2021/01/29 00:55:00;;;;;;;7.43;5.73;;;0.80;29.40;;;;;;5114639;28;20179;-61
2021/01/29 00:57:26;;;;;;;6.43;5.40;;;0.90;14.00;;;;;;5115803;28;20214;-61
2021/01/29 00:59:51;;;;;;;6.03;5.27;;;0.90;1.00;;;;;;5114698;28;20194;-61
2021/01/29 01:02:18;;;;;;;9.03;5.53;;;0.80;99.90;;;;;;5115675;28;20572;-61
2021/01/29 01:04:43;;;;;;;7.00;5.50;;;0.80;99.90;;;;;;5115407;28;20230;-61
2021/01/29 01:07:11;;;;;;;5.70;5.10;;;0.90;99.90;;;;;;5115623;28;20628;-61
2021/01/29 01:09:37;;;;;;;7.60;4.72;;;0.80;99.90;;;;;;5115558;28;20186;-64
2021/01/29 01:12:02;;;;;;;8.57;5.30;;;0.90;99.90;;;;;;5115388;28;20176;-64
2021/01/29 01:14:28;;;;;;;6.10;4.77;;;0.80;99.90;;;;;;5114176;28;20347;-61
2021/01/29 01:16:53;;;;;;;6.50;4.67;;;0.80;99.90;;;;;;5115185;28;20211;-61
2021/01/29 01:19:19;;;;;;;6.90;5.13;;;0.80;1.00;;;;;;5115275;28;20187;-61
2021/01/29 01:21:45;;;;;;;6.30;4.70;;;0.80;1.00;;;;;;5115159;28;20191;-61
2021/01/29 01:24:10;;;;;;;5.50;5.00;;;0.70;1.00;;;;;;5114921;28;20198;-63
2021/01/29 01:26:36;;;;;;;6.53;5.20;;;0.70;99.90;;;;;;5115347;28;20198;-62
2021/01/29 01:29:02;;;;;;;4.60;4.07;;;0.70;99.90;;;;;;5115114;28;20179;-62
2021/01/29 01:31:27;;;;;;;5.67;4.13;;;0.50;99.90;;;;;;5114226;28;20172;-61
2021/01/29 01:33:53;;;;;;;5.07;4.20;;;0.60;99.90;;;;;;5114645;28;20425;-61
2021/01/29 01:36:18;;;;;;;5.20;4.03;;;0.70;99.90;;;;;;5114839;28;20268;-61
2021/01/29 01:38:44;;;;;;;5.07;4.57;;;0.60;99.90;;;;;;5114862;28;20254;-61
2021/01/29 01:41:10;;;;;;;5.50;4.60;;;0.50;23.80;;;;;;5114840;28;20202;-60
2021/01/29 01:43:36;;;;;;;7.53;4.80;;;0.40;99.90;;;;;;5114625;28;20176;-61
2021/01/29 01:46:09;;;;;;;6.13;3.97;;;0.40;99.90;;;;;;5114864;28;20251;-61
2021/01/29 01:48:41;;;;;;;5.38;4.35;;;0.40;1.00;;;;;;5114689;28;20547;-61
2021/01/29 01:51:08;;;;;;;5.10;4.55;;;0.50;1.00;;;;;;5114660;28;20194;-61
2021/01/29 01:53:42;;;;;;;4.20;3.78;;;0.50;1.00;;;;;;5114760;28;20266;-61
2021/01/29 01:56:22;;;;;;;6.28;4.70;;;0.60;1.00;;;;;;5114636;28;20211;-61
2021/01/29 01:58:53;;;;;;;9.95;5.43;;;0.50;1.00;;;;;;5114761;28;20167;-61
2021/01/29 02:01:21;;;;;;;11.52;4.88;;;0.50;1.00;;;;;;5114638;28;20252;-61
2021/01/29 02:03:47;;;;;;;8.52;4.60;;;0.50;1.00;;;;;;5113131;28;20255;-61
2021/01/29 02:06:13;;;;;;;9.05;4.78;;;0.60;1.00;;;;;;5114628;28;20262;-61
2021/01/29 02:08:41;;;;;;;8.03;4.47;;;0.60;1.00;;;;;;5114238;28;20517;-61
2021/01/29 02:11:08;;;;;;;8.02;4.40;;;0.60;1.00;;;;;;5114668;28;20500;-61
2021/01/29 02:13:33;;;;;;;9.30;4.72;;;0.40;1.00;;;;;;5113094;28;20202;-61
2021/01/29 02:16:14;;;;;;;6.77;3.90;;;0.40;34.60;;;;;;5114297;28;20211;-61
2021/01/29 02:19:04;;;;;;;5.30;4.15;;;0.30;99.90;;;;;;5113360;28;20203;-61
2021/01/29 02:22:16;;;;;;;4.28;3.85;;;0.30;99.90;;;;;;5114415;28;20519;-61
2021/01/29 02:24:41;;;;;;;3.90;3.38;;;0.30;99.90;;;;;;5113961;28;20643;-61
2021/01/29 02:27:28;;;;;;;8.00;4.67;;;0.30;99.90;;;;;;5114272;28;20264;-61
2021/01/29 02:30:23;;;;;;;5.60;4.15;;;0.30;99.90;;;;;;5114611;28;20235;-61
2021/01/29 02:33:22;;;;;;;4.15;3.50;;;0.30;99.90;;;;;;5114552;28;20208;-64
2021/01/29 02:36:05;;;;;;;3.80;3.42;;;0.30;99.90;;;;;;5114451;28;20242;-63
2021/01/29 02:38:42;;;;;;;3.50;3.17;;;0.30;99.90;;;;;;5114430;28;20171;-63
2021/01/29 02:41:38;;;;;;;3.42;3.00;;;0.20;99.90;;;;;;5114297;28;20171;-61
2021/01/29 02:44:34;;;;;;;3.92;3.28;;;0.20;99.90;;;;;;5114101;28;20229;-62
2021/01/29 02:47:13;;;;;;;3.50;3.20;;;0.20;99.90;;;;;;5118851;28;20179;-63
2021/01/29 02:50:12;;;;;;;4.88;3.30;;;0.10;99.90;;;;;;5118525;28;20186;-60
2021/01/29 02:52:55;;;;;;;3.95;3.30;;;0.30;1.00;;;;;;5118526;28;20179;-61
2021/01/29 02:55:36;;;;;;;7.82;2.85;;;0.40;99.90;;;;;;5118440;28;20195;-64
2021/01/29 02:58:28;;;;;;;2.85;2.65;;;0.40;99.90;;;;;;5118085;28;20218;-61
2021/01/29 03:01:01;;;;;;;5.10;2.95;;;0.30;99.90;;;;;;5103237;28;20240;-63
2021/01/29 03:03:53;;;;;;;5.53;3.72;;;0.20;99.90;;;;;;5118334;28;20218;-60
2021/01/29 03:07:00;;;;;;;4.10;2.92;;;0.30;1.00;;;;;;5112774;28;20663;-60
2021/01/29 03:09:37;;;;;;;3.72;3.25;;;0.30;1.00;;;;;;5058557;28;20283;-60
2021/01/29 03:12:17;;;;;;;2.40;2.13;;;0.30;1.00;;;;;;5113985;28;20187;-60
2021/01/29 03:14:53;;;;;;;6.45;2.72;;;0.30;1.00;;;;;;5117539;28;20644;-60
2021/01/29 03:17:27;;;;;;;3.88;3.40;;;0.40;99.90;;;;;;5117865;28;20568;-60
2021/01/29 03:20:11;;;;;;;3.20;2.90;;;0.40;99.90;;;;;;5117804;28;20176;-60
2021/01/29 03:22:46;;;;;;;3.65;2.88;;;0.50;99.90;;;;;;5116755;28;20560;-61
2021/01/29 03:25:34;;;;;;;4.53;3.08;;;0.50;99.90;;;;;;5117442;28;20194;-60
2021/01/29 03:28:08;;;;;;;4.20;3.25;;;0.40;99.90;;;;;;5117653;28;20175;-60
2021/01/29 03:30:37;;;;;;;4.18;2.58;;;0.40;99.90;;;;;;5116540;28;20489;-61
2021/01/29 03:33:06;;;;;;;9.25;3.08;;;0.30;99.90;;;;;;5117410;28;20183;-64
2021/01/29 03:35:41;;;;;;;4.32;3.13;;;0.30;99.90;;;;;;5117315;28;20195;-63
2021/01/29 03:38:13;;;;;;;3.50;3.20;;;0.20;99.90;;;;;;5117389;28;20185;-63
2021/01/29 03:40:41;;;;;;;9.23;2.92;;;0.20;99.90;;;;;;5117332;28;20180;-63
2021/01/29 03:43:27;;;;;;;4.63;3.40;;;0.20;1.00;;;;;;5116976;28;20183;-63
2021/01/29 03:46:11;;;;;;;3.78;2.60;;;0.20;1.00;;;;;;5117267;28;20247;-64
2021/01/29 03:49:07;;;;;;;5.93;3.28;;;0.20;99.90;;;;;;5116970;28;20614;-64
2021/01/29 03:51:38;;;;;;;3.70;2.42;;;0.20;99.90;;;;;;5117130;28;20190;-64
2021/01/29 03:54:12;;;;;;;3.80;2.15;;;0.20;1.00;;;;;;5115593;28;20234;-64
2021/01/29 03:57:07;;;;;;;3.45;2.63;;;0.30;99.90;;;;;;5116720;28;20199;-64
2021/01/29 03:59:35;;;;;;;4.25;2.53;;;0.30;1.00;;;;;;5116044;28;20568;-61
2021/01/29 04:02:00;;;;;;;3.25;2.83;;;0.20;99.90;;;;;;5116977;28;20186;-63
2021/01/29 04:04:30;;;;;;;2.50;2.20;;;0.30;99.90;;;;;;5116527;28;20244;-61
2021/01/29 04:07:05;;;;;;;2.38;2.17;;;0.30;99.90;;;;;;5116546;28;20452;-60
2021/01/29 04:09:45;;;;;;;3.92;2.45;;;0.30;99.90;;;;;;5116558;28;20190;-61
2021/01/29 04:12:14;;;;;;;4.32;2.40;;;0.20;99.90;;;;;;5116639;28;20233;-61
2021/01/29 04:14:49;;;;;;;2.88;2.67;;;0.20;99.90;;;;;;5115214;28;20176;-61
2021/01/29 04:17:22;;;;;;;3.08;2.78;;;0.00;99.90;;;;;;5116357;28;20218;-61
2021/01/29 04:19:50;;;;;;;3.70;2.47;;;0.10;1.00;;;;;;5117338;28;20210;-60
2021/01/29 04:22:23;;;;;;;2.35;2.13;;;0.10;1.00;;;;;;5116559;28;20180;-61
2021/01/29 04:25:22;;;;;;;4.15;2.78;;;0.00;1.00;;;;;;5115998;28;20623;-62
2021/01/29 04:27:55;;;;;;;3.65;2.72;;;0.10;1.00;;;;;;5107549;28;20283;-62
2021/01/29 04:30:25;;;;;;;3.28;2.08;;;0.20;1.00;;;;;;5116340;28;20260;-64
2021/01/29 04:32:59;;;;;;;3.53;2.33;;;0.20;1.00;;;;;;5115272;28;20179;-62
2021/01/29 04:35:26;;;;;;;4.45;2.90;;;0.20;1.00;;;;;;5115915;28;20207;-62
2021/01/29 04:38:10;;;;;;;4.20;3.03;;;0.20;1.00;;;;;;5116464;28;20183;-62
2021/01/29 04:40:47;;;;;;;2.70;2.50;;;0.10;1.00;;;;;;5116221;28;20178;-61
2021/01/29 04:43:50;;;;;;;3.58;2.00;;;0.10;1.00;;;;;;5115984;28;20171;-61
2021/01/29 04:46:34;;;;;;;5.10;3.05;;;0.10;1.00;;;;;;5116171;28;20182;-61
2021/01/29 04:49:12;;;;;;;3.78;3.25;;;0.20;1.00;;;;;;5114938;28;20177;-61
2021/01/29 04:52:05;;;;;;;4.13;2.58;;;0.20;99.90;;;;;;5115848;28;20175;-61
2021/01/29 04:54:55;;;;;;;2.58;2.38;;;0.10;99.90;;;;;;5115717;28;20176;-61
2021/01/29 04:57:37;;;;;;;2.50;2.30;;;0.10;99.90;;;;;;5115924;28;20179;-60
2021/01/29 05:00:11;;;;;;;7.40;1.98;;;0.30;99.90;;;;;;5116197;28;20178;-60
2021/01/29 05:02:59;;;;;;;5.88;2.42;;;0.30;1.00;;;;;;5115661;28;20202;-60
2021/01/29 05:06:03;;;;;;;2.20;1.75;;;0.20;1.00;;;;;;5115404;28;20646;-60
2021/01/29 05:08:59;;;;;;;2.65;2.00;;;0.30;1.00;;;;;;5115001;28;20190;-60
2021/01/29 05:12:08;;;;;;;3.58;2.15;;;0.40;1.00;;;;;;5115642;28;20180;-60
2021/01/29 05:14:37;;;;;;;2.30;1.65;;;0.40;1.00;;;;;;5115226;28;20232;-60
2021/01/29 05:17:33;;;;;;;1.92;1.52;;;0.30;1.00;;;;;;5115206;28;20249;-60
2021/01/29 05:20:10;;;;;;;4.32;2.05;;;0.30;1.00;;;;;;5115429;28;20256;-60
2021/01/29 05:22:56;;;;;;;2.33;2.13;;;0.20;1.00;;;;;;5115559;28;20179;-60
2021/01/29 05:25:58;;;;;;;1.50;1.40;;;0.20;1.00;;;;;;5114868;28;20175;-60
2021/01/29 05:28:30;;;;;;;6.15;1.42;;;0.20;1.00;;;;;;5115278;28;20171;-60
2021/01/29 05:31:20;;;;;;;2.95;1.73;;;0.20;41.70;;;;;;5115164;28;20190;-60
2021/01/29 05:33:58;;;;;;;4.35;1.70;;;0.30;44.80;;;;;;5114799;28;20650;-60
2021/01/29 05:36:57;;;;;;;1.90;1.42;;;0.20;1.00;;;;;;5114749;28;20214;-60
2021/01/29 05:39:47;;;;;;;1.27;1.17;;;0.20;1.00;;;;;;5114203;28;20198;-62
2021/01/29 05:42:34;;;;;;;3.25;2.40;;;0.20;1.00;;;;;;5115083;28;20550;-61
2021/01/29 05:45:15;;;;;;;3.72;1.83;;;0.30;1.00;;;;;;5114688;28;20186;-62
2021/01/29 05:48:25;;;;;;;3.63;2.08;;;0.30;1.00;;;;;;5115117;28;20667;-60
2021/01/29 05:51:17;;;;;;;3.25;1.70;;;0.40;1.00;;;;;;5098467;28;20219;-61
2021/01/29 05:53:55;;;;;;;3.10;1.65;;;0.40;99.90;;;;;;5108932;28;20202;-62
2021/01/29 05:56:33;;;;;;;6.55;2.22;;;0.50;99.90;;;;;;5114577;28;20300;-62
2021/01/29 05:58:58;;;;;;;2.30;1.23;;;0.40;4.00;;;;;;5114933;28;20182;-62
2021/01/29 06:01:46;;;;;;;6.60;2.00;;;0.40;1.00;;;;;;5114667;28;20179;-62
2021/01/29 06:04:34;;;;;;;2.58;1.45;;;0.30;25.60;;;;;;5114328;28;20428;-62
2021/01/29 06:07:24;;;;;;;5.63;1.20;;;0.40;30.60;;;;;;5113359;28;20244;-61
2021/01/29 06:10:25;;;;;;;2.85;1.73;;;0.30;1.00;;;;;;5113410;28;20226;-62
2021/01/29 06:13:19;;;;;;;0.90;0.88;;;0.30;1.00;;;;;;5113428;28;20178;-62
2021/01/29 06:15:50;;;;;;;4.10;1.58;;;0.30;1.00;;;;;;5114318;28;20264;-62
2021/01/29 06:18:57;;;;;;;1.15;1.00;;;0.30;1.00;;;;;;5114217;28;20175;-62
2021/01/29 06:22:20;;;;;;;2.58;2.00;;;0.10;81.30;;;;;;5113674;28;20186;-62
2021/01/29 06:25:08;;;;;;;1.60;0.90;;;0.10;1.00;;;;;;5071423;28;20193;-61
2021/01/29 06:28:00;;;;;;;3.05;1.00;;;0.10;99.90;;;;;;5054902;28;20191;-62
2021/01/29 06:31:17;;;;;;;1.80;1.00;;;0.20;1.00;;;;;;5108519;28;20278;-62
2021/01/29 06:33:58;;;;;;;2.05;1.00;;;0.10;99.90;;;;;;5090787;28;20194;-61
2021/01/29 06:36:56;;;;;;;2.38;0.88;;;0.10;1.00;;;;;;5114193;28;20506;-61
2021/01/29 06:39:46;;;;;;;1.63;1.15;;;0.10;1.00;;;;;;5113989;28;20167;-61
2021/01/29 06:42:49;;;;;;;5.00;1.55;;;0.20;1.00;;;;;;5113758;28;20575;-61
2021/01/29 06:45:20;;;;;;;1.55;1.40;;;0.20;1.00;;;;;;5113896;28;20174;-61
2021/01/29 06:48:14;;;;;;;1.75;1.30;;;0.10;99.90;;;;;;5114229;28;20175;-61
2021/01/29 06:51:14;;;;;;;1.15;0.95;;;0.10;99.90;;;;;;5114051;28;20202;-61
2021/01/29 06:54:11;;;;;;;2.33;1.30;;;0.20;99.90;;;;;;5113760;28;20297;-61
2021/01/29 06:56:43;;;;;;;0.77;0.77;;;0.20;99.90;;;;;;5114114;28;20199;-64
2021/01/29 06:59:38;;;;;;;2.75;1.30;;;0.10;99.90;;;;;;5113965;28;20194;-64
2021/01/29 07:02:22;;;;;;;2.25;1.10;;;0.10;99.90;;;;;;5113889;28;20183;-64
2021/01/29 07:05:08;;;;;;;1.75;1.08;;;0.10;99.90;;;;;;5113887;28;20186;-64
2021/01/29 07:07:57;;;;;;;1.90;1.00;;;0.10;99.90;;;;;;5113249;28;20323;-64
2021/01/29 07:10:50;;;;;;;4.70;1.85;;;0.10;99.90;;;;;;5113810;28;20620;-64
2021/01/29 07:14:06;;;;;;;2.28;1.30;;;0.10;99.90;;;;;;5113517;28;20187;-64
2021/01/29 07:17:08;;;;;;;3.60;1.50;;;0.10;1.00;;;;;;5071164;28;20208;-64
2021/01/29 07:19:48;;;;;;;1.83;1.50;;;0.10;1.00;;;;;;5114188;28;20638;-64
2021/01/29 07:22:36;;;;;;;3.50;1.30;;;0.10;1.00;;;;;;5113650;28;20664;-64
2021/01/29 07:25:14;;;;;;;2.00;1.83;;;0.10;1.00;;;;;;5113486;28;20233;-63
2021/01/29 07:28:02;;;;;;;2.05;1.48;;;0.00;1.00;;;;;;5112582;28;20190;-65
2021/01/29 07:31:00;;;;;;;3.80;1.20;;;-0.10;99.90;;;;;;5112253;28;20190;-67
2021/01/29 07:33:31;;;;;;;1.30;1.10;;;0.10;99.90;;;;;;5099949;28;20197;-66
2021/01/29 07:36:12;;;;;;;2.35;1.40;;;0.10;1.00;;;;;;5117303;28;20199;-64
2021/01/29 07:39:23;;;;;;;2.45;1.50;;;0.00;1.00;;;;;;5117271;28;20204;-65
2021/01/29 07:42:06;;;;;;;1.10;1.00;;;0.10;1.00;;;;;;5114152;28;20252;-64
2021/01/29 07:44:59;;;;;;;2.95;1.80;;;0.20;99.90;;;;;;5116965;28;20182;-64
2021/01/29 07:47:52;;;;;;;2.50;1.30;;;0.10;27.40;;;;;;5116293;28;20538;-65
2021/01/29 07:50:43;;;;;;;3.05;1.80;;;0.00;53.70;;;;;;5117265;28;20185;-68
2021/01/29 07:53:37;;;;;;;2.15;1.52;;;0.10;99.90;;;;;;5116795;28;20187;-66
2021/01/29 07:56:06;;;;;;;3.42;1.42;;;0.20;4.60;;;;;;5117178;28;20214;-65
2021/01/29 07:58:55;;;;;;;2.78;1.95;;;0.20;1.00;;;;;;5115851;28;20592;-66
2021/01/29 08:01:21;;;;;;;2.17;1.63;;;0.10;1.00;;;;;;5085487;28;20199;-63
2021/01/29 08:03:56;;;;;;;1.20;1.10;;;0.10;1.00;;;;;;5116537;28;20202;-64
2021/01/29 08:06:24;;;;;;;5.57;1.15;;;0.10;1.00;;;;;;5116832;28;20183;-64
2021/01/29 08:09:04;;;;;;;3.50;2.17;;;0.10;1.00;;;;;;5111170;28;20552;-63
2021/01/29 08:11:33;;;;;;;4.65;1.45;;;0.20;1.00;;;;;;5116671;28;20168;-63
2021/01/29 08:14:21;;;;;;;3.35;1.98;;;0.10;99.90;;;;;;5114912;28;20183;-67
2021/01/29 08:17:26;;;;;;;4.75;1.88;;;0.20;99.90;;;;;;5114044;27;20535;-65
2021/01/29 08:20:10;;;;;;;1.15;0.90;;;0.20;99.90;;;;;;5121792;27;20178;-69
2021/01/29 08:22:47;;;;;;;3.05;2.10;;;0.10;28.10;;;;;;5115247;28;20615;-65
2021/01/29 08:25:22;;;;;;;3.10;1.38;;;0.10;72.00;;;;;;5120910;27;20611;-65
2021/01/29 08:28:06;;;;;;;5.05;2.22;;;0.20;1.00;;;;;;5116389;28;20175;-68
2021/01/29 08:30:46;;;;;;;5.15;2.80;;;0.20;1.00;;;;;;5112799;28;20257;-64
2021/01/29 08:33:38;;;;;;;1.67;1.27;;;0.30;1.00;;;;;;5111254;27;20529;-67
2021/01/29 08:36:40;;;;;;;4.30;2.20;;;0.30;1.00;;;;;;5116749;27;20237;-63
2021/01/29 08:39:11;;;;;;;4.25;2.20;;;0.30;1.00;;;;;;5136518;27;20174;-65
2021/01/29 08:42:00;;;;;;;1.80;0.98;;;0.30;1.00;;;;;;5125288;27;20175;-62
2021/01/29 08:44:47;;;;;;;1.27;1.17;;;0.30;1.00;;;;;;5113952;28;20195;-66
2021/01/29 08:47:37;;;;;;;2.10;1.30;;;0.30;1.00;;;;;;5115074;28;20190;-66
2021/01/29 08:50:30;;;;;;;1.77;1.45;;;0.30;1.00;;;;;;5117057;27;20660;-62
2021/01/29 08:53:31;;;;;;;3.33;1.75;;;0.30;99.90;;;;;;5095287;28;20183;-66
2021/01/29 08:56:08;;;;;;;1.83;1.35;;;0.20;99.90;;;;;;5111781;28;20309;-62
2021/01/29 08:59:04;;;;;;;4.40;2.22;;;0.30;99.90;;;;;;5114721;28;20198;-65
2021/01/29 09:01:51;;;;;;;2.05;1.55;;;0.40;99.90;;;;;;5111046;28;20195;-66
2021/01/29 09:04:25;;;;;;;2.83;2.17;;;0.40;93.30;;;;;;5115591;28;20386;-66
2021/01/29 09:06:54;;;;;;;4.60;1.92;;;0.30;1.00;;;;;;5115718;28;20601;-62
2021/01/29 09:09:27;;;;;;;10.57;2.45;;;0.30;1.00;;;;;;5115804;28;20194;-65
2021/01/29 09:11:56;;;;;;;2.78;1.63;;;0.30;1.00;;;;;;5115438;28;20529;-65
2021/01/29 09:14:42;;;;;;;14.68;6.55;;;0.40;1.00;;;;;;5114017;28;20530;-62
2021/01/29 09:17:14;;;;;;;3.88;2.35;;;0.40;1.00;;;;;;5097797;28;20277;-64
2021/01/29 09:19:51;;;;;;;3.70;2.60;;;0.40;1.00;;;;;;5115441;28;20175;-65
2021/01/29 09:22:39;;;;;;;8.85;3.50;;;0.40;99.90;;;;;;5114426;28;20210;-63
2021/01/29 09:25:33;;;;;;;3.85;2.50;;;0.40;1.00;;;;;;5131965;27;20182;-65
2021/01/29 09:28:09;;;;;;;5.32;2.10;;;0.40;1.00;;;;;;5128015;27;20171;-65
2021/01/29 09:30:56;;;;;;;3.88;2.40;;;0.50;1.00;;;;;;5115180;28;20193;-68
2021/01/29 09:33:46;;;;;;;2.25;1.75;;;0.50;99.90;;;;;;5113287;28;20511;-62
2021/01/29 09:36:21;;;;;;;6.78;2.95;;;0.70;1.00;;;;;;5113948;28;20696;-65
2021/01/29 09:39:39;;;;;;;7.55;3.00;;;0.80;1.00;;;;;;5115177;28;20252;-61
2021/01/29 09:42:12;;;;;;;4.32;2.70;;;1.10;1.00;;;;;;5089459;28;20191;-64
2021/01/29 09:44:46;;;;;;;4.18;2.08;;;0.90;99.90;;;;;;5093953;28;20498;-65
2021/01/29 09:47:18;;;;;;;7.93;2.50;;;0.80;99.90;;;;;;5094422;28;20194;-66
2021/01/29 09:49:45;;;;;;;18.40;8.70;;;0.70;99.90;;;;;;5107630;28;20191;-65
2021/01/29 09:52:34;;;;;;;6.60;3.08;;;0.70;1.00;;;;;;5114905;28;20285;-66
2021/01/29 09:55:09;;;;;;;2.95;2.13;;;0.70;1.00;;;;;;5115360;28;20194;-66
2021/01/29 09:57:54;;;;;;;2.15;1.95;;;0.60;99.90;;;;;;5115518;28;20262;-64
2021/01/29 10:00:24;;;;;;;5.68;2.38;;;0.80;1.00;;;;;;5113662;28;20531;-64
2021/01/29 10:03:10;;;;;;;3.35;1.60;;;0.80;99.90;;;;;;5114043;28;20539;-65
2021/01/29 10:05:37;;;;;;;3.20;2.25;;;0.90;99.90;;;;;;5114370;28;20183;-65
2021/01/29 10:08:30;;;;;;;2.58;2.38;;;1.00;99.90;;;;;;5113237;28;20206;-67
2021/01/29 10:11:04;;;;;;;1.98;1.77;;;0.80;99.90;;;;;;5102471;28;20195;-65
2021/01/29 10:13:49;;;;;;;2.05;1.83;;;0.90;99.90;;;;;;5113579;28;20186;-63
2021/01/29 10:16:34;;;;;;;4.90;2.00;;;0.80;58.90;;;;;;5114057;28;20242;-62
2021/01/29 10:19:08;;;;;;;3.95;2.20;;;0.90;99.90;;;;;;5113752;28;20187;-65
2021/01/29 10:21:59;;;;;;;2.55;2.20;;;0.90;1.00;;;;;;5113893;28;20175;-67
2021/01/29 10:24:38;;;;;;;4.57;2.25;;;0.80;1.00;;;;;;5113613;28;20266;-67
2021/01/29 10:27:31;;;;;;;3.22;2.47;;;0.80;18.40;;;;;;5112743;28;20210;-66
2021/01/29 10:30:23;;;;;;;10.38;2.50;;;1.00;1.00;;;;;;5094297;28;20282;-66
2021/01/29 10:33:11;;;;;;;2.75;2.55;;;1.10;1.00;;;;;;5113747;28;20225;-65
2021/01/29 10:35:59;;;;;;;3.10;2.20;;;1.30;1.00;;;;;;5113597;28;20195;-64
2021/01/29 10:38:41;;;;;;;4.80;1.55;;;1.30;1.00;;;;;;5113717;28;20556;-63
2021/01/29 10:41:18;;;;;;;4.15;1.95;;;1.20;1.00;;;;;;5113854;28;20171;-67
2021/01/29 10:43:54;;;;;;;4.60;1.65;;;1.00;1.00;;;;;;5113371;28;20511;-68
2021/01/29 10:46:40;;;;;;;3.10;2.63;;;0.90;1.00;;;;;;5113401;28;20193;-64
2021/01/29 10:49:20;;;;;;;4.97;2.20;;;0.90;1.00;;;;;;5112816;28;20175;-67
2021/01/29 10:51:57;;;;;;;5.60;2.05;;;1.10;1.00;;;;;;5113808;28;20270;-70
2021/01/29 10:54:31;;;;;;;2.10;1.65;;;1.20;1.00;;;;;;5113540;28;20179;-64
2021/01/29 10:57:24;;;;;;;1.70;1.10;;;1.50;1.00;;;;;;5113849;28;20210;-67
2021/01/29 11:00:21;;;;;;;2.83;2.55;;;1.40;99.90;;;;;;5112448;28;20183;-67
2021/01/29 11:02:51;;;;;;;5.03;2.88;;;1.10;99.90;;;;;;5113052;28;20222;-64
2021/01/29 11:05:26;;;;;;;1.33;1.23;;;1.00;99.90;;;;;;5113276;28;20182;-62
2021/01/29 11:08:01;;;;;;;1.70;1.55;;;1.00;99.90;;;;;;5118194;28;20171;-65
2021/01/29 11:10:33;;;;;;;2.50;2.10;;;1.00;99.90;;;;;;5117277;28;20179;-65
2021/01/29 11:13:20;;;;;;;2.63;1.90;;;1.10;99.90;;;;;;5118077;28;20224;-64
2021/01/29 11:15:57;;;;;;;2.50;2.30;;;1.20;99.90;;;;;;5116844;28;20206;-62
2021/01/29 11:18:37;;;;;;;1.38;1.27;;;1.10;99.90;;;;;;5116676;28;20206;-67
2021/01/29 11:21:24;;;;;;;6.07;1.52;;;1.10;99.90;;;;;;5095750;28;20378;-67
2021/01/29 11:24:13;;;;;;;4.13;2.05;;;1.20;99.90;;;;;;5107537;27;20579;-67
2021/01/29 11:27:00;;;;;;;5.05;1.35;;;1.20;99.90;;;;;;5137771;27;20182;-63
2021/01/29 11:29:48;;;;;;;2.55;1.35;;;1.30;99.90;;;;;;5138497;27;20190;-65
2021/01/29 11:32:28;;;;;;;2.42;1.23;;;1.20;1.00;;;;;;5134504;27;20191;-64
2021/01/29 11:35:21;;;;;;;3.72;1.48;;;1.40;19.20;;;;;;5117214;28;20616;-64
2021/01/29 11:37:55;;;;;;;4.40;1.30;;;1.30;1.00;;;;;;5117375;28;20187;-65
2021/01/29 11:40:28;;;;;;;2.35;2.15;;;1.30;1.00;;;;;;5117123;28;20274;-68
2021/01/29 11:43:27;;;;;;;1.45;1.10;;;1.30;1.00;;;;;;5117314;28;20193;-67
2021/01/29 11:45:58;;;;;;;2.83;1.63;;;1.20;1.00;;;;;;5116718;28;20182;-67
2021/01/29 11:48:43;;;;;;;4.00;1.27;;;1.30;1.00;;;;;;5115764;28;20175;-67
2021/01/29 11:51:33;;;;;;;1.88;1.17;;;1.20;1.00;;;;;;5116840;28;20183;-64
2021/01/29 11:54:04;;;;;;;4.85;1.63;;;1.30;1.00;;;;;;5116864;28;20215;-69
2021/01/29 11:56:49;;;;;;;2.05;1.25;;;1.10;1.00;;;;;;5095279;28;20261;-68
2021/01/29 11:59:28;;;;;;;1.95;1.65;;;1.10;1.00;;;;;;5107865;28;20274;-67
2021/01/29 12:02:08;;;;;;;1.15;0.95;;;0.90;99.90;;;;;;5099389;28;20266;-64
2021/01/29 12:04:43;;;;;;;1.42;1.33;;;0.90;99.90;;;;;;5117298;28;20171;-66
2021/01/29 12:07:52;;;;;;;1.70;1.15;;;0.80;99.90;;;;;;5116083;28;20171;-67
2021/01/29 12:10:51;;;;;;;3.90;1.52;;;1.00;99.90;;;;;;5103273;28;20624;-66
2021/01/29 12:13:29;;;;;;;3.65;1.50;;;1.10;99.90;;;;;;5116847;28;20667;-67
2021/01/29 12:15:58;;;;;;;3.55;1.95;;;1.10;99.90;;;;;;5117005;28;20210;-67
2021/01/29 12:18:27;;;;;;;2.35;1.17;;;1.00;99.90;;;;;;5116150;28;20183;-65
2021/01/29 12:21:08;;;;;;;2.58;1.77;;;0.90;1.00;;;;;;5116682;28;20183;-66
2021/01/29 12:24:02;;;;;;;1.95;1.75;;;0.90;1.00;;;;;;5123251;27;20181;-64
2021/01/29 12:26:47;;;;;;;1.05;0.80;;;0.80;1.00;;;;;;5140226;27;20170;-66
2021/01/29 12:29:21;;;;;;;2.58;1.20;;;0.70;99.90;;;;;;5141256;27;20321;-64
2021/01/29 12:31:58;;;;;;;3.15;1.88;;;0.70;99.90;;;;;;5138274;27;20239;-64
2021/01/29 12:34:51;;;;;;;1.85;1.00;;;0.60;1.00;;;;;;5118385;28;20175;-65
2021/01/29 12:37:26;;;;;;;1.50;1.40;;;0.60;1.00;;;;;;5117458;28;20207;-63
2021/01/29 12:39:55;;;;;;;1.35;1.13;;;0.50;1.00;;;;;;5116679;28;20171;-62
2021/01/29 12:42:45;;;;;;;3.35;2.17;;;0.60;99.90;;;;;;5116187;28;20745;-64
2021/01/29 12:45:30;;;;;;;11.75;6.57;;;0.50;1.00;;;;;;5117438;28;20183;-62
2021/01/29 12:48:22;;;;;;;3.25;2.10;;;0.50;1.00;;;;;;5117675;28;20219;-65
2021/01/29 12:51:01;;;;;;;1.55;1.45;;;0.40;1.00;;;;;;5117042;28;20210;-70
2021/01/29 12:53:42;;;;;;;1.65;1.30;;;0.30;1.00;;;;;;5117039;28;20593;-63
2021/01/29 12:56:19;;;;;;;5.05;1.73;;;0.30;99.90;;;;;;5117013;28;20686;-64
2021/01/29 12:58:55;;;;;;;4.75;2.13;;;0.20;1.00;;;;;;5118545;28;20194;-68
2021/01/29 13:01:39;;;;;;;2.67;1.30;;;0.10;99.90;;;;;;5118803;28;20557;-63
2021/01/29 13:04:14;;;;;;;2.15;1.48;;;0.00;1.00;;;;;;5117290;28;20274;-66
2021/01/29 13:06:54;;;;;;;2.20;1.00;;;-0.20;99.90;;;;;;5117153;28;20611;-66
2021/01/29 13:09:30;;;;;;;3.95;1.25;;;-0.20;1.00;;;;;;5117053;28;20281;-69
2021/01/29 13:12:07;;;;;;;2.88;1.48;;;-0.20;1.00;;;;;;5108295;28;20255;-65
2021/01/29 13:15:07;;;;;;;2.45;1.40;;;-0.40;1.00;;;;;;5114965;28;20194;-65
2021/01/29 13:17:38;;;;;;;1.42;1.33;;;-0.40;99.90;;;;;;5116535;28;20209;-65
2021/01/29 13:20:26;;;;;;;1.38;0.82;;;-0.20;99.90;;;;;;5115597;28;20203;-65
2021/01/29 13:23:20;;;;;;;2.85;1.60;;;-0.30;99.90;;;;;;5115774;28;20438;-64
2021/01/29 13:25:59;;;;;;;2.72;1.70;;;-0.20;1.00;;;;;;5099495;28;20258;-66
2021/01/29 13:28:36;;;;;;;3.35;1.52;;;0.10;1.00;;;;;;5113433;28;20253;-65
2021/01/29 13:31:20;;;;;;;1.90;1.13;;;-0.20;1.00;;;;;;5116406;28;20269;-66
2021/01/29 13:33:53;;;;;;;2.45;1.65;;;-0.30;1.00;;;;;;5114347;28;20175;-65
2021/01/29 13:36:32;;;;;;;3.20;1.95;;;-0.40;1.00;;;;;;5113827;28;20203;-62
2021/01/29 13:39:29;;;;;;;1.95;1.33;;;-0.50;1.00;;;;;;5114675;28;20567;-62
2021/01/29 13:42:22;;;;;;;1.30;1.20;;;-0.40;1.00;;;;;;5102629;28;20193;-62
2021/01/29 13:44:53;;;;;;;4.20;1.98;;;-0.40;1.00;;;;;;5091078;28;20184;-63
2021/01/29 13:47:35;;;;;;;1.48;1.35;;;-0.60;1.00;;;;;;5094125;28;20184;-63
2021/01/29 13:50:30;;;;;;;3.03;2.03;;;-0.80;1.00;;;;;;5094310;28;20188;-65
2021/01/29 13:52:58;;;;;;;2.92;1.30;;;-0.80;1.00;;;;;;5094206;28;20180;-65
2021/01/29 13:55:45;;;;;;;2.35;1.48;;;-0.80;1.00;;;;;;5104423;28;20568;-65
2021/01/29 13:58:26;;;;;;;1.52;1.08;;;-0.80;1.00;;;;;;5113245;28;20632;-64
2021/01/29 14:01:01;;;;;;;8.73;2.33;;;-0.70;1.00;;;;;;5114135;28;20269;-64
2021/01/29 14:03:35;;;;;;;2.40;1.25;;;-0.70;1.00;;;;;;5112824;28;20190;-66
2021/01/29 14:06:02;;;;;;;3.35;1.60;;;-0.60;1.00;;;;;;5113905;28;20179;-67
2021/01/29 14:08:31;;;;;;;1.77;1.30;;;-0.40;1.00;;;;;;5114370;28;20245;-70
2021/01/29 14:11:03;;;;;;;1.58;1.48;;;-0.40;1.00;;;;;;5114349;28;20179;-67
2021/01/29 14:13:52;;;;;;;1.83;1.40;;;-0.50;1.00;;;;;;5114740;28;20183;-64